sensor_id;sensor_type;location;lat;lon;timestamp;P1;durP1;ratioP1;P2;durP2;ratioP2
51901;SDS011;37929;53.218;6.548;2022-11-20T00:00:50;17.10;;;9.48;;
51901;SDS011;37929;53.218;6.548;2022-11-20T00:03:16;15.50;;;8.52;;
51901;SDS011;37929;53.218;6.548;2022-11-20T00:05:42;13.88;;;8.23;;
51901;SDS011;37929;53.218;6.548;2022-11-20T00:08:08;16.75;;;9.88;;
51901;SDS011;37929;53.218;6.548;2022-11-20T00:10:38;14.65;;;8.10;;
51901;SDS011;37929;53.218;6.548;2022-11-20T00:13:04;16.70;;;8.90;;
51901;SDS011;37929;53.218;6.548;2022-11-20T00:15:30;15.88;;;7.57;;
51901;SDS011;37929;53.218;6.548;2022-11-20T00:17:59;13.40;;;7.63;;
51901;SDS011;37929;53.218;6.548;2022-11-20T00:20:24;13.88;;;7.68;;
51901;SDS011;37929;53.218;6.548;2022-11-20T00:22:50;12.50;;;7.00;;
51901;SDS011;37929;53.218;6.548;2022-11-20T00:25:16;14.52;;;8.40;;
51901;SDS011;37929;53.218;6.548;2022-11-20T00:27:42;10.73;;;6.38;;
51901;SDS011;37929;53.218;6.548;2022-11-20T00:30:08;12.23;;;6.75;;
51901;SDS011;37929;53.218;6.548;2022-11-20T00:32:34;13.07;;;7.28;;
51901;SDS011;37929;53.218;6.548;2022-11-20T00:35:00;14.65;;;7.57;;
51901;SDS011;37929;53.218;6.548;2022-11-20T00:37:26;11.77;;;7.32;;
51901;SDS011;37929;53.218;6.548;2022-11-20T00:39:52;12.70;;;7.20;;
51901;SDS011;37929;53.218;6.548;2022-11-20T00:42:17;15.95;;;7.05;;
51901;SDS011;37929;53.218;6.548;2022-11-20T00:44:43;13.38;;;7.45;;
51901;SDS011;37929;53.218;6.548;2022-11-20T00:47:12;11.40;;;7.18;;
51901;SDS011;37929;53.218;6.548;2022-11-20T00:49:38;13.00;;;6.55;;
51901;SDS011;37929;53.218;6.548;2022-11-20T00:52:03;14.75;;;7.13;;
51901;SDS011;37929;53.218;6.548;2022-11-20T00:54:29;12.93;;;5.82;;
51901;SDS011;37929;53.218;6.548;2022-11-20T00:56:55;9.15;;;5.85;;
51901;SDS011;37929;53.218;6.548;2022-11-20T00:59:20;12.40;;;6.47;;
51901;SDS011;37929;53.218;6.548;2022-11-20T01:01:46;11.77;;;5.97;;
51901;SDS011;37929;53.218;6.548;2022-11-20T01:04:12;12.10;;;6.80;;
51901;SDS011;37929;53.218;6.548;2022-11-20T01:06:38;9.70;;;5.75;;
51901;SDS011;37929;53.218;6.548;2022-11-20T01:09:08;12.38;;;6.25;;
51901;SDS011;37929;53.218;6.548;2022-11-20T01:11:37;11.40;;;6.25;;
51901;SDS011;37929;53.218;6.548;2022-11-20T01:14:09;10.25;;;5.85;;
51901;SDS011;37929;53.218;6.548;2022-11-20T01:16:38;14.00;;;7.43;;
51901;SDS011;37929;53.218;6.548;2022-11-20T01:19:07;12.90;;;7.25;;
51901;SDS011;37929;53.218;6.548;2022-11-20T01:21:40;11.07;;;6.10;;
51901;SDS011;37929;53.218;6.548;2022-11-20T01:24:08;12.07;;;6.63;;
51901;SDS011;37929;53.218;6.548;2022-11-20T01:26:36;11.57;;;6.43;;
51901;SDS011;37929;53.218;6.548;2022-11-20T01:29:05;11.20;;;6.72;;
51901;SDS011;37929;53.218;6.548;2022-11-20T01:31:33;12.77;;;6.90;;
51901;SDS011;37929;53.218;6.548;2022-11-20T01:34:02;12.60;;;7.35;;
51901;SDS011;37929;53.218;6.548;2022-11-20T01:36:30;11.52;;;7.47;;
51901;SDS011;37929;53.218;6.548;2022-11-20T01:38:58;12.05;;;6.93;;
51901;SDS011;37929;53.218;6.548;2022-11-20T01:41:27;14.35;;;7.53;;
51901;SDS011;37929;53.218;6.548;2022-11-20T01:44:15;13.50;;;8.25;;
51901;SDS011;37929;53.218;6.548;2022-11-20T01:46:56;11.10;;;6.93;;
51901;SDS011;37929;53.218;6.548;2022-11-20T01:49:29;14.68;;;8.13;;
51901;SDS011;37929;53.218;6.548;2022-11-20T01:52:00;12.52;;;7.55;;
51901;SDS011;37929;53.218;6.548;2022-11-20T01:54:36;11.82;;;7.47;;
51901;SDS011;37929;53.218;6.548;2022-11-20T01:57:09;16.10;;;7.28;;
51901;SDS011;37929;53.218;6.548;2022-11-20T01:59:38;15.02;;;8.07;;
51901;SDS011;37929;53.218;6.548;2022-11-20T02:02:10;14.45;;;7.40;;
51901;SDS011;37929;53.218;6.548;2022-11-20T02:04:35;13.73;;;7.00;;
51901;SDS011;37929;53.218;6.548;2022-11-20T02:07:02;14.18;;;6.85;;
51901;SDS011;37929;53.218;6.548;2022-11-20T02:09:30;14.63;;;7.55;;
51901;SDS011;37929;53.218;6.548;2022-11-20T02:11:56;13.27;;;6.80;;
51901;SDS011;37929;53.218;6.548;2022-11-20T02:14:23;14.90;;;7.88;;
51901;SDS011;37929;53.218;6.548;2022-11-20T02:16:50;15.23;;;8.13;;
51901;SDS011;37929;53.218;6.548;2022-11-20T02:21:50;14.45;;;6.65;;
51901;SDS011;37929;53.218;6.548;2022-11-20T02:24:29;11.88;;;7.03;;
51901;SDS011;37929;53.218;6.548;2022-11-20T02:29:28;15.68;;;7.97;;
51901;SDS011;37929;53.218;6.548;2022-11-20T02:32:03;14.85;;;7.85;;
51901;SDS011;37929;53.218;6.548;2022-11-20T02:34:29;14.98;;;8.07;;
51901;SDS011;37929;53.218;6.548;2022-11-20T02:36:54;13.07;;;7.90;;
51901;SDS011;37929;53.218;6.548;2022-11-20T02:39:22;13.50;;;7.63;;
51901;SDS011;37929;53.218;6.548;2022-11-20T02:41:50;14.63;;;7.45;;
51901;SDS011;37929;53.218;6.548;2022-11-20T02:44:21;15.52;;;7.93;;
51901;SDS011;37929;53.218;6.548;2022-11-20T02:46:46;13.02;;;7.47;;
51901;SDS011;37929;53.218;6.548;2022-11-20T02:49:12;13.90;;;8.07;;
51901;SDS011;37929;53.218;6.548;2022-11-20T02:51:38;13.57;;;8.10;;
51901;SDS011;37929;53.218;6.548;2022-11-20T02:54:03;14.35;;;7.70;;
51901;SDS011;37929;53.218;6.548;2022-11-20T02:56:29;13.88;;;8.00;;
51901;SDS011;37929;53.218;6.548;2022-11-20T02:58:55;11.95;;;6.95;;
51901;SDS011;37929;53.218;6.548;2022-11-20T03:01:21;14.85;;;8.18;;
51901;SDS011;37929;53.218;6.548;2022-11-20T03:03:47;13.45;;;7.75;;
51901;SDS011;37929;53.218;6.548;2022-11-20T03:06:14;15.57;;;8.32;;
51901;SDS011;37929;53.218;6.548;2022-11-20T03:08:41;12.15;;;6.90;;
51901;SDS011;37929;53.218;6.548;2022-11-20T03:11:07;13.73;;;7.45;;
51901;SDS011;37929;53.218;6.548;2022-11-20T03:13:34;15.43;;;7.28;;
51901;SDS011;37929;53.218;6.548;2022-11-20T03:16:07;13.30;;;7.20;;
51901;SDS011;37929;53.218;6.548;2022-11-20T03:18:38;12.07;;;7.22;;
51901;SDS011;37929;53.218;6.548;2022-11-20T03:21:05;12.60;;;7.07;;
51901;SDS011;37929;53.218;6.548;2022-11-20T03:23:31;13.45;;;6.60;;
51901;SDS011;37929;53.218;6.548;2022-11-20T03:26:11;11.70;;;6.55;;
51901;SDS011;37929;53.218;6.548;2022-11-20T03:28:41;12.77;;;6.38;;
51901;SDS011;37929;53.218;6.548;2022-11-20T03:31:11;12.70;;;6.50;;
51901;SDS011;37929;53.218;6.548;2022-11-20T03:33:39;15.75;;;6.40;;
51901;SDS011;37929;53.218;6.548;2022-11-20T03:36:06;11.40;;;6.80;;
51901;SDS011;37929;53.218;6.548;2022-11-20T03:38:37;14.13;;;7.18;;
51901;SDS011;37929;53.218;6.548;2022-11-20T03:41:04;10.90;;;6.40;;
51901;SDS011;37929;53.218;6.548;2022-11-20T03:43:32;12.40;;;6.28;;
51901;SDS011;37929;53.218;6.548;2022-11-20T03:45:58;11.95;;;6.85;;
51901;SDS011;37929;53.218;6.548;2022-11-20T03:48:24;11.10;;;6.35;;
51901;SDS011;37929;53.218;6.548;2022-11-20T03:50:52;11.32;;;6.72;;
51901;SDS011;37929;53.218;6.548;2022-11-20T03:53:18;10.38;;;6.05;;
51901;SDS011;37929;53.218;6.548;2022-11-20T03:55:45;10.68;;;6.18;;
51901;SDS011;37929;53.218;6.548;2022-11-20T03:58:15;12.52;;;6.80;;
51901;SDS011;37929;53.218;6.548;2022-11-20T04:00:43;11.80;;;6.93;;
51901;SDS011;37929;53.218;6.548;2022-11-20T04:03:08;10.27;;;5.28;;
51901;SDS011;37929;53.218;6.548;2022-11-20T04:05:34;11.07;;;5.78;;
51901;SDS011;37929;53.218;6.548;2022-11-20T04:08:00;12.48;;;6.88;;
51901;SDS011;37929;53.218;6.548;2022-11-20T04:10:26;13.30;;;6.90;;
51901;SDS011;37929;53.218;6.548;2022-11-20T04:12:52;13.70;;;7.10;;
51901;SDS011;37929;53.218;6.548;2022-11-20T04:15:17;11.25;;;6.32;;
51901;SDS011;37929;53.218;6.548;2022-11-20T04:17:43;10.48;;;6.35;;
51901;SDS011;37929;53.218;6.548;2022-11-20T04:20:12;11.70;;;6.47;;
51901;SDS011;37929;53.218;6.548;2022-11-20T04:22:38;9.93;;;6.13;;
51901;SDS011;37929;53.218;6.548;2022-11-20T04:25:03;13.68;;;6.70;;
51901;SDS011;37929;53.218;6.548;2022-11-20T04:27:30;13.30;;;6.72;;
51901;SDS011;37929;53.218;6.548;2022-11-20T04:29:56;10.98;;;6.35;;
51901;SDS011;37929;53.218;6.548;2022-11-20T04:32:21;10.35;;;5.97;;
51901;SDS011;37929;53.218;6.548;2022-11-20T04:34:47;11.32;;;6.68;;
51901;SDS011;37929;53.218;6.548;2022-11-20T04:37:12;15.55;;;6.65;;
51901;SDS011;37929;53.218;6.548;2022-11-20T04:39:38;10.98;;;5.63;;
51901;SDS011;37929;53.218;6.548;2022-11-20T04:42:04;13.02;;;6.13;;
51901;SDS011;37929;53.218;6.548;2022-11-20T04:44:48;10.85;;;6.40;;
51901;SDS011;37929;53.218;6.548;2022-11-20T04:47:14;9.43;;;5.63;;
51901;SDS011;37929;53.218;6.548;2022-11-20T04:49:40;9.43;;;5.88;;
51901;SDS011;37929;53.218;6.548;2022-11-20T04:52:06;13.63;;;6.63;;
51901;SDS011;37929;53.218;6.548;2022-11-20T04:54:31;10.57;;;5.60;;
51901;SDS011;37929;53.218;6.548;2022-11-20T04:56:57;9.27;;;5.70;;
51901;SDS011;37929;53.218;6.548;2022-11-20T04:59:25;11.40;;;6.22;;
51901;SDS011;37929;53.218;6.548;2022-11-20T05:01:51;11.18;;;6.45;;
51901;SDS011;37929;53.218;6.548;2022-11-20T05:04:17;9.13;;;5.30;;
51901;SDS011;37929;53.218;6.548;2022-11-20T05:06:42;11.40;;;5.82;;
51901;SDS011;37929;53.218;6.548;2022-11-20T05:09:08;12.95;;;6.25;;
51901;SDS011;37929;53.218;6.548;2022-11-20T05:11:34;12.25;;;6.45;;
51901;SDS011;37929;53.218;6.548;2022-11-20T05:13:59;9.13;;;5.47;;
51901;SDS011;37929;53.218;6.548;2022-11-20T05:16:25;10.38;;;5.60;;
51901;SDS011;37929;53.218;6.548;2022-11-20T05:18:51;10.15;;;5.78;;
51901;SDS011;37929;53.218;6.548;2022-11-20T05:21:18;11.80;;;5.47;;
51901;SDS011;37929;53.218;6.548;2022-11-20T05:23:44;10.48;;;5.68;;
51901;SDS011;37929;53.218;6.548;2022-11-20T05:26:15;10.32;;;6.25;;
51901;SDS011;37929;53.218;6.548;2022-11-20T05:28:42;11.00;;;6.10;;
51901;SDS011;37929;53.218;6.548;2022-11-20T05:31:09;10.07;;;5.55;;
51901;SDS011;37929;53.218;6.548;2022-11-20T05:33:42;11.55;;;6.20;;
51901;SDS011;37929;53.218;6.548;2022-11-20T05:36:09;11.38;;;6.22;;
51901;SDS011;37929;53.218;6.548;2022-11-20T05:38:37;10.20;;;5.65;;
51901;SDS011;37929;53.218;6.548;2022-11-20T05:41:04;10.80;;;5.97;;
51901;SDS011;37929;53.218;6.548;2022-11-20T05:43:35;9.50;;;5.43;;
51901;SDS011;37929;53.218;6.548;2022-11-20T05:46:02;12.98;;;6.38;;
51901;SDS011;37929;53.218;6.548;2022-11-20T05:48:29;10.30;;;5.70;;
51901;SDS011;37929;53.218;6.548;2022-11-20T05:51:00;10.32;;;5.60;;
51901;SDS011;37929;53.218;6.548;2022-11-20T05:53:27;10.68;;;5.95;;
51901;SDS011;37929;53.218;6.548;2022-11-20T05:56:07;10.15;;;6.05;;
51901;SDS011;37929;53.218;6.548;2022-11-20T05:58:41;8.02;;;5.57;;
51901;SDS011;37929;53.218;6.548;2022-11-20T06:01:11;9.50;;;5.50;;
51901;SDS011;37929;53.218;6.548;2022-11-20T06:03:40;11.20;;;5.22;;
51901;SDS011;37929;53.218;6.548;2022-11-20T06:06:15;9.82;;;5.15;;
51901;SDS011;37929;53.218;6.548;2022-11-20T06:08:41;10.13;;;5.90;;
51901;SDS011;37929;53.218;6.548;2022-11-20T06:11:08;9.90;;;5.80;;
51901;SDS011;37929;53.218;6.548;2022-11-20T06:13:35;9.40;;;5.30;;
51901;SDS011;37929;53.218;6.548;2022-11-20T06:16:01;9.68;;;5.30;;
51901;SDS011;37929;53.218;6.548;2022-11-20T06:18:27;11.68;;;5.78;;
51901;SDS011;37929;53.218;6.548;2022-11-20T06:21:02;10.30;;;6.00;;
51901;SDS011;37929;53.218;6.548;2022-11-20T06:23:31;10.85;;;6.22;;
51901;SDS011;37929;53.218;6.548;2022-11-20T06:26:02;10.98;;;5.55;;
51901;SDS011;37929;53.218;6.548;2022-11-20T06:28:29;11.85;;;5.68;;
51901;SDS011;37929;53.218;6.548;2022-11-20T06:30:55;10.45;;;5.57;;
51901;SDS011;37929;53.218;6.548;2022-11-20T06:33:21;8.45;;;5.40;;
51901;SDS011;37929;53.218;6.548;2022-11-20T06:35:49;10.32;;;5.18;;
51901;SDS011;37929;53.218;6.548;2022-11-20T06:38:15;9.65;;;5.82;;
51901;SDS011;37929;53.218;6.548;2022-11-20T06:40:41;7.78;;;4.63;;
51901;SDS011;37929;53.218;6.548;2022-11-20T06:43:08;10.32;;;5.78;;
51901;SDS011;37929;53.218;6.548;2022-11-20T06:45:34;9.85;;;5.60;;
51901;SDS011;37929;53.218;6.548;2022-11-20T06:48:00;7.38;;;4.70;;
51901;SDS011;37929;53.218;6.548;2022-11-20T06:50:26;11.00;;;5.57;;
51901;SDS011;37929;53.218;6.548;2022-11-20T06:52:52;10.02;;;5.35;;
51901;SDS011;37929;53.218;6.548;2022-11-20T06:55:18;8.25;;;5.57;;
51901;SDS011;37929;53.218;6.548;2022-11-20T06:57:44;9.77;;;5.68;;
51901;SDS011;37929;53.218;6.548;2022-11-20T07:00:09;9.57;;;5.80;;
51901;SDS011;37929;53.218;6.548;2022-11-20T07:02:36;9.57;;;5.75;;
51901;SDS011;37929;53.218;6.548;2022-11-20T07:05:05;8.10;;;5.07;;
51901;SDS011;37929;53.218;6.548;2022-11-20T07:07:31;9.18;;;4.93;;
51901;SDS011;37929;53.218;6.548;2022-11-20T07:09:57;8.82;;;5.45;;
51901;SDS011;37929;53.218;6.548;2022-11-20T07:12:22;8.05;;;5.40;;
51901;SDS011;37929;53.218;6.548;2022-11-20T07:14:48;10.18;;;5.28;;
51901;SDS011;37929;53.218;6.548;2022-11-20T07:17:14;10.02;;;5.65;;
51901;SDS011;37929;53.218;6.548;2022-11-20T07:19:40;8.95;;;5.43;;
51901;SDS011;37929;53.218;6.548;2022-11-20T07:22:05;8.68;;;5.38;;
51901;SDS011;37929;53.218;6.548;2022-11-20T07:24:31;8.38;;;5.15;;
51901;SDS011;37929;53.218;6.548;2022-11-20T07:26:57;9.35;;;5.15;;
51901;SDS011;37929;53.218;6.548;2022-11-20T07:29:23;9.25;;;5.63;;
51901;SDS011;37929;53.218;6.548;2022-11-20T07:31:48;10.38;;;6.00;;
51901;SDS011;37929;53.218;6.548;2022-11-20T07:34:14;11.13;;;5.63;;
51901;SDS011;37929;53.218;6.548;2022-11-20T07:36:43;10.23;;;5.28;;
51901;SDS011;37929;53.218;6.548;2022-11-20T07:39:08;8.18;;;4.97;;
51901;SDS011;37929;53.218;6.548;2022-11-20T07:41:34;9.95;;;5.80;;
51901;SDS011;37929;53.218;6.548;2022-11-20T07:44:00;10.98;;;5.65;;
51901;SDS011;37929;53.218;6.548;2022-11-20T07:46:26;10.10;;;4.88;;
51901;SDS011;37929;53.218;6.548;2022-11-20T07:48:52;10.57;;;5.78;;
51901;SDS011;37929;53.218;6.548;2022-11-20T07:51:17;8.77;;;5.20;;
51901;SDS011;37929;53.218;6.548;2022-11-20T07:53:43;9.48;;;5.90;;
51901;SDS011;37929;53.218;6.548;2022-11-20T07:56:09;10.07;;;5.63;;
51901;SDS011;37929;53.218;6.548;2022-11-20T07:58:35;12.10;;;5.53;;
51901;SDS011;37929;53.218;6.548;2022-11-20T08:01:04;9.07;;;5.38;;
51901;SDS011;37929;53.218;6.548;2022-11-20T08:03:31;12.65;;;6.53;;
51901;SDS011;37929;53.218;6.548;2022-11-20T08:06:00;9.25;;;5.25;;
51901;SDS011;37929;53.218;6.548;2022-11-20T08:08:26;7.82;;;5.05;;
51901;SDS011;37929;53.218;6.548;2022-11-20T08:10:52;9.18;;;5.60;;
51901;SDS011;37929;53.218;6.548;2022-11-20T08:13:38;10.13;;;5.38;;
51901;SDS011;37929;53.218;6.548;2022-11-20T08:16:22;9.82;;;5.85;;
51901;SDS011;37929;53.218;6.548;2022-11-20T08:18:48;9.93;;;5.63;;
51901;SDS011;37929;53.218;6.548;2022-11-20T08:21:14;9.20;;;5.38;;
51901;SDS011;37929;53.218;6.548;2022-11-20T08:23:40;11.18;;;5.53;;
51901;SDS011;37929;53.218;6.548;2022-11-20T08:26:06;11.45;;;5.88;;
51901;SDS011;37929;53.218;6.548;2022-11-20T08:28:31;8.82;;;4.97;;
51901;SDS011;37929;53.218;6.548;2022-11-20T08:30:58;8.38;;;5.45;;
51901;SDS011;37929;53.218;6.548;2022-11-20T08:33:25;10.23;;;6.05;;
51901;SDS011;37929;53.218;6.548;2022-11-20T08:35:51;9.35;;;5.63;;
51901;SDS011;37929;53.218;6.548;2022-11-20T08:38:17;8.23;;;5.10;;
51901;SDS011;37929;53.218;6.548;2022-11-20T08:40:42;10.25;;;5.70;;
51901;SDS011;37929;53.218;6.548;2022-11-20T08:43:31;10.52;;;5.43;;
51901;SDS011;37929;53.218;6.548;2022-11-20T08:45:59;10.32;;;5.10;;
51901;SDS011;37929;53.218;6.548;2022-11-20T08:48:25;10.18;;;5.43;;
51901;SDS011;37929;53.218;6.548;2022-11-20T08:50:51;9.90;;;5.78;;
51901;SDS011;37929;53.218;6.548;2022-11-20T08:53:20;11.25;;;5.32;;
51901;SDS011;37929;53.218;6.548;2022-11-20T08:55:46;11.35;;;6.15;;
51901;SDS011;37929;53.218;6.548;2022-11-20T08:58:11;10.48;;;6.22;;
51901;SDS011;37929;53.218;6.548;2022-11-20T09:00:37;13.35;;;6.07;;
51901;SDS011;37929;53.218;6.548;2022-11-20T09:03:05;10.27;;;5.53;;
51901;SDS011;37929;53.218;6.548;2022-11-20T09:05:31;10.05;;;5.95;;
51901;SDS011;37929;53.218;6.548;2022-11-20T09:07:57;10.93;;;5.85;;
51901;SDS011;37929;53.218;6.548;2022-11-20T09:10:24;8.90;;;5.75;;
51901;SDS011;37929;53.218;6.548;2022-11-20T09:12:53;10.27;;;5.70;;
51901;SDS011;37929;53.218;6.548;2022-11-20T09:15:21;10.73;;;6.22;;
51901;SDS011;37929;53.218;6.548;2022-11-20T09:20:17;11.93;;;6.18;;
51901;SDS011;37929;53.218;6.548;2022-11-20T09:22:46;12.55;;;6.80;;
51901;SDS011;37929;53.218;6.548;2022-11-20T09:25:11;10.45;;;6.45;;
51901;SDS011;37929;53.218;6.548;2022-11-20T09:27:37;11.88;;;6.28;;
51901;SDS011;37929;53.218;6.548;2022-11-20T09:30:03;11.00;;;5.85;;
51901;SDS011;37929;53.218;6.548;2022-11-20T09:32:29;10.52;;;6.05;;
51901;SDS011;37929;53.218;6.548;2022-11-20T09:34:55;8.98;;;5.55;;
51901;SDS011;37929;53.218;6.548;2022-11-20T09:37:21;9.63;;;5.85;;
51901;SDS011;37929;53.218;6.548;2022-11-20T09:39:46;10.40;;;5.53;;
51901;SDS011;37929;53.218;6.548;2022-11-20T09:42:27;10.75;;;5.65;;
51901;SDS011;37929;53.218;6.548;2022-11-20T09:48:08;9.60;;;5.75;;
51901;SDS011;37929;53.218;6.548;2022-11-20T09:53:57;9.43;;;5.45;;
51901;SDS011;37929;53.218;6.548;2022-11-20T09:56:26;11.15;;;6.35;;
51901;SDS011;37929;53.218;6.548;2022-11-20T09:58:57;11.02;;;6.00;;
51901;SDS011;37929;53.218;6.548;2022-11-20T10:01:29;9.88;;;5.55;;
51901;SDS011;37929;53.218;6.548;2022-11-20T10:04:01;10.20;;;5.75;;
51901;SDS011;37929;53.218;6.548;2022-11-20T10:06:37;10.45;;;5.85;;
51901;SDS011;37929;53.218;6.548;2022-11-20T10:09:28;9.18;;;5.57;;
51901;SDS011;37929;53.218;6.548;2022-11-20T10:17:34;10.10;;;5.18;;
51901;SDS011;37929;53.218;6.548;2022-11-20T10:20:38;11.27;;;5.45;;
51901;SDS011;37929;53.218;6.548;2022-11-20T10:23:35;8.13;;;4.93;;
51901;SDS011;37929;53.218;6.548;2022-11-20T10:26:17;8.02;;;4.75;;
51901;SDS011;37929;53.218;6.548;2022-11-20T10:29:07;9.90;;;5.50;;
51901;SDS011;37929;53.218;6.548;2022-11-20T10:31:41;8.85;;;5.43;;
51901;SDS011;37929;53.218;6.548;2022-11-20T10:37:01;9.40;;;5.32;;
51901;SDS011;37929;53.218;6.548;2022-11-20T10:39:47;9.45;;;4.75;;
51901;SDS011;37929;53.218;6.548;2022-11-20T10:45:31;8.55;;;5.47;;
51901;SDS011;37929;53.218;6.548;2022-11-20T10:50:44;8.32;;;4.85;;
51901;SDS011;37929;53.218;6.548;2022-11-20T11:01:15;9.63;;;4.80;;
51901;SDS011;37929;53.218;6.548;2022-11-20T11:03:49;8.52;;;5.28;;
51901;SDS011;37929;53.218;6.548;2022-11-20T11:09:04;11.43;;;5.35;;
51901;SDS011;37929;53.218;6.548;2022-11-20T11:11:37;8.50;;;4.75;;
51901;SDS011;37929;53.218;6.548;2022-11-20T11:14:04;9.93;;;4.65;;
51901;SDS011;37929;53.218;6.548;2022-11-20T11:16:35;7.93;;;4.47;;
51901;SDS011;37929;53.218;6.548;2022-11-20T11:19:11;9.20;;;4.97;;
51901;SDS011;37929;53.218;6.548;2022-11-20T11:21:38;9.07;;;4.82;;
51901;SDS011;37929;53.218;6.548;2022-11-20T11:24:23;7.72;;;4.97;;
51901;SDS011;37929;53.218;6.548;2022-11-20T11:26:50;9.38;;;4.97;;
51901;SDS011;37929;53.218;6.548;2022-11-20T11:29:31;8.07;;;5.20;;
51901;SDS011;37929;53.218;6.548;2022-11-20T11:32:08;8.35;;;4.78;;
51901;SDS011;37929;53.218;6.548;2022-11-20T11:34:38;9.70;;;5.07;;
51901;SDS011;37929;53.218;6.548;2022-11-20T11:37:05;9.20;;;5.35;;
51901;SDS011;37929;53.218;6.548;2022-11-20T11:39:42;8.27;;;3.85;;
51901;SDS011;37929;53.218;6.548;2022-11-20T11:42:13;7.07;;;4.40;;
51901;SDS011;37929;53.218;6.548;2022-11-20T11:44:46;7.00;;;4.60;;
51901;SDS011;37929;53.218;6.548;2022-11-20T11:47:32;8.70;;;4.82;;
51901;SDS011;37929;53.218;6.548;2022-11-20T11:52:33;9.05;;;4.68;;
51901;SDS011;37929;53.218;6.548;2022-11-20T11:55:30;8.13;;;4.57;;
51901;SDS011;37929;53.218;6.548;2022-11-20T12:04:14;7.93;;;4.82;;
51901;SDS011;37929;53.218;6.548;2022-11-20T12:06:47;8.98;;;4.38;;
51901;SDS011;37929;53.218;6.548;2022-11-20T12:09:18;7.37;;;4.10;;
51901;SDS011;37929;53.218;6.548;2022-11-20T12:12:32;6.43;;;4.28;;
51901;SDS011;37929;53.218;6.548;2022-11-20T12:14:42;7.88;;;4.13;;
51901;SDS011;37929;53.218;6.548;2022-11-20T12:17:15;5.72;;;3.30;;
51901;SDS011;37929;53.218;6.548;2022-11-20T12:19:44;5.88;;;3.70;;
51901;SDS011;37929;53.218;6.548;2022-11-20T12:38:43;6.00;;;3.60;;
51901;SDS011;37929;53.218;6.548;2022-11-20T12:52:57;6.00;;;3.70;;
51901;SDS011;37929;53.218;6.548;2022-11-20T13:01:12;4.45;;;2.67;;
51901;SDS011;37929;53.218;6.548;2022-11-20T13:04:48;7.78;;;4.82;;
51901;SDS011;37929;53.218;6.548;2022-11-20T13:07:12;4.50;;;2.88;;
51901;SDS011;37929;53.218;6.548;2022-11-20T13:09:40;5.20;;;2.90;;
51901;SDS011;37929;53.218;6.548;2022-11-20T13:12:18;5.72;;;2.92;;
51901;SDS011;37929;53.218;6.548;2022-11-20T13:14:58;8.00;;;4.95;;
51901;SDS011;37929;53.218;6.548;2022-11-20T13:17:38;5.90;;;3.55;;
51901;SDS011;37929;53.218;6.548;2022-11-20T13:20:25;7.10;;;4.75;;
51901;SDS011;37929;53.218;6.548;2022-11-20T13:22:51;5.72;;;3.90;;
51901;SDS011;37929;53.218;6.548;2022-11-20T13:27:56;10.68;;;7.07;;
51901;SDS011;37929;53.218;6.548;2022-11-20T13:30:27;9.00;;;5.80;;
51901;SDS011;37929;53.218;6.548;2022-11-20T13:32:56;8.60;;;4.55;;
51901;SDS011;37929;53.218;6.548;2022-11-20T13:35:27;7.60;;;4.10;;
51901;SDS011;37929;53.218;6.548;2022-11-20T13:45:56;18.17;;;9.57;;
51901;SDS011;37929;53.218;6.548;2022-11-20T13:48:42;14.15;;;7.25;;
51901;SDS011;37929;53.218;6.548;2022-11-20T13:51:14;10.20;;;6.85;;
51901;SDS011;37929;53.218;6.548;2022-11-20T13:59:28;7.75;;;4.18;;
51901;SDS011;37929;53.218;6.548;2022-11-20T14:01:56;6.53;;;4.20;;
51901;SDS011;37929;53.218;6.548;2022-11-20T14:04:34;6.07;;;3.80;;
51901;SDS011;37929;53.218;6.548;2022-11-20T14:07:04;7.03;;;4.25;;
51901;SDS011;37929;53.218;6.548;2022-11-20T14:09:31;6.13;;;4.15;;
51901;SDS011;37929;53.218;6.548;2022-11-20T14:11:59;7.95;;;4.25;;
51901;SDS011;37929;53.218;6.548;2022-11-20T14:14:26;10.45;;;5.78;;
51901;SDS011;37929;53.218;6.548;2022-11-20T14:17:04;8.45;;;5.05;;
51901;SDS011;37929;53.218;6.548;2022-11-20T14:19:31;7.25;;;4.53;;
51901;SDS011;37929;53.218;6.548;2022-11-20T14:24:34;10.65;;;5.05;;
51901;SDS011;37929;53.218;6.548;2022-11-20T14:27:00;7.80;;;4.80;;
51901;SDS011;37929;53.218;6.548;2022-11-20T14:29:27;8.40;;;4.60;;
51901;SDS011;37929;53.218;6.548;2022-11-20T14:31:57;8.95;;;4.93;;
51901;SDS011;37929;53.218;6.548;2022-11-20T14:34:35;7.78;;;4.65;;
51901;SDS011;37929;53.218;6.548;2022-11-20T14:37:10;8.90;;;4.40;;
51901;SDS011;37929;53.218;6.548;2022-11-20T14:39:42;15.40;;;10.52;;
51901;SDS011;37929;53.218;6.548;2022-11-20T14:42:21;10.50;;;5.72;;
51901;SDS011;37929;53.218;6.548;2022-11-20T14:44:48;8.25;;;4.95;;
51901;SDS011;37929;53.218;6.548;2022-11-20T14:47:18;8.38;;;5.07;;
51901;SDS011;37929;53.218;6.548;2022-11-20T14:49:47;9.18;;;4.72;;
51901;SDS011;37929;53.218;6.548;2022-11-20T14:52:16;8.80;;;5.25;;
51901;SDS011;37929;53.218;6.548;2022-11-20T14:54:44;7.70;;;4.80;;
51901;SDS011;37929;53.218;6.548;2022-11-20T14:57:23;8.20;;;4.55;;
51901;SDS011;37929;53.218;6.548;2022-11-20T14:59:49;9.15;;;4.88;;
51901;SDS011;37929;53.218;6.548;2022-11-20T15:02:14;7.95;;;4.80;;
51901;SDS011;37929;53.218;6.548;2022-11-20T15:04:47;9.27;;;4.75;;
51901;SDS011;37929;53.218;6.548;2022-11-20T15:07:23;8.75;;;4.70;;
51901;SDS011;37929;53.218;6.548;2022-11-20T15:10:05;7.80;;;4.20;;
51901;SDS011;37929;53.218;6.548;2022-11-20T15:12:55;7.32;;;4.47;;
51901;SDS011;37929;53.218;6.548;2022-11-20T15:18:14;12.82;;;7.10;;
51901;SDS011;37929;53.218;6.548;2022-11-20T15:20:47;12.37;;;6.43;;
51901;SDS011;37929;53.218;6.548;2022-11-20T15:23:16;9.60;;;5.78;;
51901;SDS011;37929;53.218;6.548;2022-11-20T15:25:46;9.27;;;5.55;;
51901;SDS011;37929;53.218;6.548;2022-11-20T15:31:03;11.15;;;5.47;;
51901;SDS011;37929;53.218;6.548;2022-11-20T15:33:29;7.93;;;4.85;;
51901;SDS011;37929;53.218;6.548;2022-11-20T15:35:59;8.27;;;5.22;;
51901;SDS011;37929;53.218;6.548;2022-11-20T15:38:25;7.97;;;5.32;;
51901;SDS011;37929;53.218;6.548;2022-11-20T15:40:54;8.75;;;5.40;;
51901;SDS011;37929;53.218;6.548;2022-11-20T15:43:22;9.35;;;5.60;;
51901;SDS011;37929;53.218;6.548;2022-11-20T15:45:52;10.75;;;6.43;;
51901;SDS011;37929;53.218;6.548;2022-11-20T15:48:28;8.95;;;5.53;;
51901;SDS011;37929;53.218;6.548;2022-11-20T15:53:34;7.65;;;4.60;;
51901;SDS011;37929;53.218;6.548;2022-11-20T15:56:01;7.47;;;4.80;;
51901;SDS011;37929;53.218;6.548;2022-11-20T15:58:27;11.13;;;5.90;;
51901;SDS011;37929;53.218;6.548;2022-11-20T16:00:53;8.82;;;4.95;;
51901;SDS011;37929;53.218;6.548;2022-11-20T16:03:19;10.52;;;5.38;;
51901;SDS011;37929;53.218;6.548;2022-11-20T16:05:45;9.50;;;5.18;;
51901;SDS011;37929;53.218;6.548;2022-11-20T16:08:14;11.75;;;5.75;;
51901;SDS011;37929;53.218;6.548;2022-11-20T16:10:40;11.45;;;6.20;;
51901;SDS011;37929;53.218;6.548;2022-11-20T16:13:16;8.82;;;5.22;;
51901;SDS011;37929;53.218;6.548;2022-11-20T16:16:03;8.52;;;5.60;;
51901;SDS011;37929;53.218;6.548;2022-11-20T16:18:34;9.05;;;5.65;;
51901;SDS011;37929;53.218;6.548;2022-11-20T16:21:00;10.35;;;5.43;;
51901;SDS011;37929;53.218;6.548;2022-11-20T16:23:33;10.38;;;5.70;;
51901;SDS011;37929;53.218;6.548;2022-11-20T16:25:59;12.60;;;6.63;;
51901;SDS011;37929;53.218;6.548;2022-11-20T16:28:35;12.02;;;6.20;;
51901;SDS011;37929;53.218;6.548;2022-11-20T16:31:11;10.57;;;5.95;;
51901;SDS011;37929;53.218;6.548;2022-11-20T16:33:42;12.38;;;6.55;;
51901;SDS011;37929;53.218;6.548;2022-11-20T16:36:11;10.80;;;6.45;;
51901;SDS011;37929;53.218;6.548;2022-11-20T16:38:41;13.13;;;6.70;;
51901;SDS011;37929;53.218;6.548;2022-11-20T16:41:08;11.98;;;6.88;;
51901;SDS011;37929;53.218;6.548;2022-11-20T16:43:46;12.63;;;7.30;;